sensor_id;sensor_type;location;lat;lon;timestamp;pressure;altitude;pressure_sealevel;temperature;humidity
47556;BME280;33291;46.222;26.460;2023-06-22T00:02:17;96972.22;;;15.86;99.00
47556;BME280;33291;46.222;26.460;2023-06-22T00:04:42;96960.56;;;15.80;98.81
47556;BME280;33291;46.222;26.460;2023-06-22T00:07:08;96955.41;;;15.71;99.08
47556;BME280;33291;46.222;26.460;2023-06-22T00:09:33;96950.97;;;15.63;99.37
47556;BME280;33291;46.222;26.460;2023-06-22T00:11:59;96947.00;;;15.59;99.40
47556;BME280;33291;46.222;26.460;2023-06-22T00:14:25;96954.53;;;15.54;99.69
47556;BME280;33291;46.222;26.460;2023-06-22T00:16:50;96949.09;;;15.47;99.57
47556;BME280;33291;46.222;26.460;2023-06-22T00:19:22;96953.84;;;15.43;100.00
47556;BME280;33291;46.222;26.460;2023-06-22T00:21:48;96949.88;;;15.39;100.00
47556;BME280;33291;46.222;26.460;2023-06-22T00:24:21;96950.56;;;15.41;100.00
47556;BME280;33291;46.222;26.460;2023-06-22T00:26:48;96964.03;;;15.46;100.00
47556;BME280;33291;46.222;26.460;2023-06-22T00:29:14;96963.53;;;15.43;100.00
47556;BME280;33291;46.222;26.460;2023-06-22T00:31:39;96966.31;;;15.41;100.00
47556;BME280;33291;46.222;26.460;2023-06-22T00:34:05;96969.03;;;15.32;100.00
47556;BME280;33291;46.222;26.460;2023-06-22T00:36:32;96967.56;;;15.29;100.00
47556;BME280;33291;46.222;26.460;2023-06-22T00:38:57;96961.81;;;15.25;100.00
47556;BME280;33291;46.222;26.460;2023-06-22T00:41:23;96969.50;;;15.27;100.00
47556;BME280;33291;46.222;26.460;2023-06-22T00:43:48;96969.50;;;15.27;100.00
47556;BME280;33291;46.222;26.460;2023-06-22T00:46:14;96965.91;;;15.28;100.00
47556;BME280;33291;46.222;26.460;2023-06-22T00:48:40;96964.78;;;15.31;100.00
47556;BME280;33291;46.222;26.460;2023-06-22T00:51:07;96955.41;;;15.28;100.00
47556;BME280;33291;46.222;26.460;2023-06-22T00:53:33;96962.66;;;15.34;100.00
47556;BME280;33291;46.222;26.460;2023-06-22T00:56:00;96961.69;;;15.35;100.00
47556;BME280;33291;46.222;26.460;2023-06-22T00:58:26;96946.25;;;15.32;100.00
47556;BME280;33291;46.222;26.460;2023-06-22T01:00:51;96963.00;;;15.39;100.00
47556;BME280;33291;46.222;26.460;2023-06-22T01:03:17;96953.81;;;15.35;100.00
47556;BME280;33291;46.222;26.460;2023-06-22T01:05:44;96947.22;;;15.31;100.00
47556;BME280;33291;46.222;26.460;2023-06-22T01:11:13;96952.47;;;15.23;100.00
47556;BME280;33291;46.222;26.460;2023-06-22T01:14:06;96947.38;;;15.21;100.00
47556;BME280;33291;46.222;26.460;2023-06-22T01:16:35;96942.56;;;15.17;100.00
47556;BME280;33291;46.222;26.460;2023-06-22T01:19:14;96952.78;;;15.20;100.00
47556;BME280;33291;46.222;26.460;2023-06-22T01:21:43;96935.16;;;15.12;100.00
47556;BME280;33291;46.222;26.460;2023-06-22T01:24:27;96954.72;;;15.18;100.00
47556;BME280;33291;46.222;26.460;2023-06-22T01:29:56;96937.75;;;15.04;100.00
47556;BME280;33291;46.222;26.460;2023-06-22T01:32:32;96942.19;;;15.03;100.00
47556;BME280;33291;46.222;26.460;2023-06-22T01:35:00;96941.50;;;15.01;100.00
47556;BME280;33291;46.222;26.460;2023-06-22T01:37:27;96910.94;;;14.84;100.00
47556;BME280;33291;46.222;26.460;2023-06-22T01:39:55;96954.84;;;15.08;100.00
47556;BME280;33291;46.222;26.460;2023-06-22T01:42:23;96946.13;;;15.07;100.00
47556;BME280;33291;46.222;26.460;2023-06-22T01:44:49;96948.09;;;15.05;100.00
47556;BME280;33291;46.222;26.460;2023-06-22T01:47:15;96946.75;;;15.01;100.00
47556;BME280;33291;46.222;26.460;2023-06-22T01:49:41;96946.09;;;14.99;100.00
47556;BME280;33291;46.222;26.460;2023-06-22T01:52:07;96944.44;;;14.98;100.00
47556;BME280;33291;46.222;26.460;2023-06-22T01:54:33;96919.16;;;14.89;100.00
47556;BME280;33291;46.222;26.460;2023-06-22T01:56:58;96940.84;;;14.99;100.00
47556;BME280;33291;46.222;26.460;2023-06-22T02:02:32;96955.56;;;14.92;100.00
47556;BME280;33291;46.222;26.460;2023-06-22T02:05:05;96959.34;;;14.89;100.00
47556;BME280;33291;46.222;26.460;2023-06-22T02:07:35;96953.41;;;14.87;100.00
47556;BME280;33291;46.222;26.460;2023-06-22T02:10:03;96946.81;;;14.83;100.00
47556;BME280;33291;46.222;26.460;2023-06-22T02:12:32;96936.63;;;14.80;100.00
47556;BME280;33291;46.222;26.460;2023-06-22T02:15:00;96955.56;;;14.92;100.00
47556;BME280;33291;46.222;26.460;2023-06-22T02:17:26;96953.25;;;14.89;100.00
47556;BME280;33291;46.222;26.460;2023-06-22T02:19:51;96956.19;;;14.86;100.00
47556;BME280;33291;46.222;26.460;2023-06-22T02:22:17;96959.41;;;14.80;100.00
47556;BME280;33291;46.222;26.460;2023-06-22T02:24:43;96920.50;;;14.49;100.00
47556;BME280;33291;46.222;26.460;2023-06-22T02:27:08;96963.28;;;14.67;100.00
47556;BME280;33291;46.222;26.460;2023-06-22T02:29:34;96956.94;;;14.60;100.00
47556;BME280;33291;46.222;26.460;2023-06-22T02:31:59;96967.16;;;14.63;100.00
47556;BME280;33291;46.222;26.460;2023-06-22T02:34:25;96966.34;;;14.63;100.00
47556;BME280;33291;46.222;26.460;2023-06-22T02:36:50;96963.88;;;14.61;100.00
47556;BME280;33291;46.222;26.460;2023-06-22T02:39:20;96960.00;;;14.65;100.00
47556;BME280;33291;46.222;26.460;2023-06-22T02:41:47;96957.53;;;14.64;100.00
47556;BME280;33291;46.222;26.460;2023-06-22T02:44:13;96969.13;;;14.61;100.00
47556;BME280;33291;46.222;26.460;2023-06-22T02:46:38;96966.78;;;14.58;100.00
47556;BME280;33291;46.222;26.460;2023-06-22T02:49:04;96945.72;;;14.50;100.00
47556;BME280;33291;46.222;26.460;2023-06-22T02:51:32;96945.44;;;14.53;100.00
47556;BME280;33291;46.222;26.460;2023-06-22T02:53:59;96912.06;;;14.37;100.00
47556;BME280;33291;46.222;26.460;2023-06-22T02:56:24;96949.81;;;14.62;100.00
47556;BME280;33291;46.222;26.460;2023-06-22T02:58:50;96947.84;;;14.64;100.00
47556;BME280;33291;46.222;26.460;2023-06-22T03:01:15;96942.59;;;14.64;100.00
47556;BME280;33291;46.222;26.460;2023-06-22T03:03:41;96949.81;;;14.62;100.00
47556;BME280;33291;46.222;26.460;2023-06-22T03:06:06;96938.47;;;14.62;100.00
47556;BME280;33291;46.222;26.460;2023-06-22T03:08:32;96937.19;;;14.66;100.00
47556;BME280;33291;46.222;26.460;2023-06-22T03:10:57;96936.25;;;14.67;100.00
47556;BME280;33291;46.222;26.460;2023-06-22T03:13:23;96933.25;;;14.62;100.00
47556;BME280;33291;46.222;26.460;2023-06-22T03:15:49;96941.94;;;14.62;100.00
47556;BME280;33291;46.222;26.460;2023-06-22T03:18:15;96935.97;;;14.60;100.00
47556;BME280;33291;46.222;26.460;2023-06-22T03:20:41;96938.91;;;14.57;100.00
47556;BME280;33291;46.222;26.460;2023-06-22T03:23:06;96941.84;;;14.54;100.00
47556;BME280;33291;46.222;26.460;2023-06-22T03:25:32;96934.34;;;14.59;100.00
47556;BME280;33291;46.222;26.460;2023-06-22T03:27:59;96943.03;;;14.60;100.00
47556;BME280;33291;46.222;26.460;2023-06-22T03:30:25;96948.16;;;14.61;100.00
47556;BME280;33291;46.222;26.460;2023-06-22T03:32:51;96938.75;;;14.58;100.00
47556;BME280;33291;46.222;26.460;2023-06-22T03:35:16;96951.13;;;14.66;100.00
47556;BME280;33291;46.222;26.460;2023-06-22T03:37:41;96945.88;;;14.66;100.00
47556;BME280;33291;46.222;26.460;2023-06-22T03:40:07;96949.19;;;14.68;100.00
47556;BME280;33291;46.222;26.460;2023-06-22T03:42:34;96948.34;;;14.68;100.00
47556;BME280;33291;46.222;26.460;2023-06-22T03:45:01;96956.13;;;14.78;100.00
47556;BME280;33291;46.222;26.460;2023-06-22T03:47:26;96954.00;;;14.81;100.00
47556;BME280;33291;46.222;26.460;2023-06-22T03:49:52;96962.38;;;14.85;100.00
47556;BME280;33291;46.222;26.460;2023-06-22T03:52:21;96950.28;;;14.84;100.00
47556;BME280;33291;46.222;26.460;2023-06-22T03:54:47;96961.09;;;14.89;100.00
47556;BME280;33291;46.222;26.460;2023-06-22T03:57:13;96952.59;;;14.87;100.00
47556;BME280;33291;46.222;26.460;2023-06-22T03:59:38;96912.78;;;14.65;100.00
47556;BME280;33291;46.222;26.460;2023-06-22T04:02:04;96956.25;;;14.94;100.00
47556;BME280;33291;46.222;26.460;2023-06-22T04:04:29;96951.97;;;14.93;100.00
47556;BME280;33291;46.222;26.460;2023-06-22T04:06:55;96953.94;;;14.91;100.00
47556;BME280;33291;46.222;26.460;2023-06-22T04:09:20;96960.28;;;14.88;100.00
47556;BME280;33291;46.222;26.460;2023-06-22T04:11:47;96951.84;;;14.77;100.00
47556;BME280;33291;46.222;26.460;2023-06-22T04:14:12;96957.44;;;14.82;100.00
47556;BME280;33291;46.222;26.460;2023-06-22T04:16:38;96953.34;;;14.79;100.00
47556;BME280;33291;46.222;26.460;2023-06-22T04:19:03;96951.53;;;14.80;100.00
47556;BME280;33291;46.222;26.460;2023-06-22T04:21:29;96951.03;;;14.76;100.00
47556;BME280;33291;46.222;26.460;2023-06-22T04:23:54;96956.47;;;14.83;100.00
47556;BME280;33291;46.222;26.460;2023-06-22T04:26:20;96947.50;;;14.85;100.00
47556;BME280;33291;46.222;26.460;2023-06-22T04:28:47;96950.63;;;14.89;100.00
47556;BME280;33291;46.222;26.460;2023-06-22T04:31:19;96945.13;;;15.00;100.00
47556;BME280;33291;46.222;26.460;2023-06-22T04:33:45;96943.19;;;15.10;100.00
47556;BME280;33291;46.222;26.460;2023-06-22T04:36:10;96949.16;;;15.21;100.00
47556;BME280;33291;46.222;26.460;2023-06-22T04:38:39;96944.78;;;15.30;100.00
47556;BME280;33291;46.222;26.460;2023-06-22T04:41:04;96950.88;;;15.38;100.00
47556;BME280;33291;46.222;26.460;2023-06-22T04:43:30;96952.03;;;15.44;100.00
47556;BME280;33291;46.222;26.460;2023-06-22T04:45:58;96953.22;;;15.50;100.00
47556;BME280;33291;46.222;26.460;2023-06-22T04:48:29;96963.44;;;15.61;100.00
47556;BME280;33291;46.222;26.460;2023-06-22T04:50:58;96954.25;;;15.65;100.00
47556;BME280;33291;46.222;26.460;2023-06-22T04:53:28;96923.03;;;15.54;100.00
47556;BME280;33291;46.222;26.460;2023-06-22T04:55:55;96958.59;;;15.83;100.00
47556;BME280;33291;46.222;26.460;2023-06-22T04:58:20;96951.69;;;15.81;100.00
47556;BME280;33291;46.222;26.460;2023-06-22T05:00:47;96929.00;;;15.72;100.00
47556;BME280;33291;46.222;26.460;2023-06-22T05:03:12;96963.22;;;15.97;100.00
47556;BME280;33291;46.222;26.460;2023-06-22T05:05:38;96962.56;;;16.03;100.00
47556;BME280;33291;46.222;26.460;2023-06-22T05:08:03;96954.19;;;16.08;100.00
47556;BME280;33291;46.222;26.460;2023-06-22T05:10:32;96953.41;;;16.15;100.00
47556;BME280;33291;46.222;26.460;2023-06-22T05:12:58;96967.72;;;16.29;100.00
47556;BME280;33291;46.222;26.460;2023-06-22T05:15:24;96962.94;;;16.33;100.00
47556;BME280;33291;46.222;26.460;2023-06-22T05:17:53;96973.97;;;16.45;100.00
47556;BME280;33291;46.222;26.460;2023-06-22T05:20:18;96968.69;;;16.45;100.00
47556;BME280;33291;46.222;26.460;2023-06-22T05:22:44;96967.84;;;16.61;100.00
47556;BME280;33291;46.222;26.460;2023-06-22T05:25:10;96963.59;;;16.68;100.00
47556;BME280;33291;46.222;26.460;2023-06-22T05:27:36;96957.19;;;16.70;100.00
47556;BME280;33291;46.222;26.460;2023-06-22T05:30:08;96967.84;;;16.85;100.00
47556;BME280;33291;46.222;26.460;2023-06-22T05:32:35;96964.41;;;16.93;100.00
47556;BME280;33291;46.222;26.460;2023-06-22T05:35:01;96968.84;;;17.01;100.00
47556;BME280;33291;46.222;26.460;2023-06-22T05:37:27;96964.22;;;17.11;99.53
47556;BME280;33291;46.222;26.460;2023-06-22T05:39:53;96959.56;;;17.21;99.41
47556;BME280;33291;46.222;26.460;2023-06-22T05:42:19;96960.19;;;17.32;99.34
47556;BME280;33291;46.222;26.460;2023-06-22T05:44:44;96952.63;;;17.37;99.15
47556;BME280;33291;46.222;26.460;2023-06-22T05:47:10;96956.53;;;17.49;98.88
47556;BME280;33291;46.222;26.460;2023-06-22T05:49:35;96946.75;;;17.58;98.51
47556;BME280;33291;46.222;26.460;2023-06-22T05:52:01;96940.63;;;17.66;97.62
47556;BME280;33291;46.222;26.460;2023-06-22T05:54:29;96944.19;;;17.81;96.83
47556;BME280;33291;46.222;26.460;2023-06-22T05:56:55;96945.09;;;17.97;95.46
47556;BME280;33291;46.222;26.460;2023-06-22T05:59:20;96945.97;;;18.12;94.17
47556;BME280;33291;46.222;26.460;2023-06-22T06:01:46;96945.56;;;18.23;92.86
47556;BME280;33291;46.222;26.460;2023-06-22T06:04:18;96940.88;;;18.34;92.24
47556;BME280;33291;46.222;26.460;2023-06-22T06:06:44;96952.81;;;18.44;91.93
47556;BME280;33291;46.222;26.460;2023-06-22T06:09:09;96952.59;;;18.54;91.65
47556;BME280;33291;46.222;26.460;2023-06-22T06:11:37;96944.22;;;18.65;91.85
47556;BME280;33291;46.222;26.460;2023-06-22T06:14:02;96943.81;;;18.77;91.96
47556;BME280;33291;46.222;26.460;2023-06-22T06:16:27;96941.75;;;18.87;91.86
47556;BME280;33291;46.222;26.460;2023-06-22T06:18:53;96943.34;;;18.96;91.80
47556;BME280;33291;46.222;26.460;2023-06-22T06:21:21;96935.56;;;19.10;90.84
47556;BME280;33291;46.222;26.460;2023-06-22T06:23:46;96947.34;;;19.22;90.96
47556;BME280;33291;46.222;26.460;2023-06-22T06:26:12;96937.78;;;19.36;90.14
47556;BME280;33291;46.222;26.460;2023-06-22T06:28:38;96933.09;;;19.53;89.61
47556;BME280;33291;46.222;26.460;2023-06-22T06:31:03;96929.34;;;19.62;88.37
47556;BME280;33291;46.222;26.460;2023-06-22T06:33:32;96929.03;;;19.87;86.65
47556;BME280;33291;46.222;26.460;2023-06-22T06:35:57;96926.97;;;20.04;84.73
47556;BME280;33291;46.222;26.460;2023-06-22T06:38:23;96932.84;;;20.21;83.30
47556;BME280;33291;46.222;26.460;2023-06-22T06:40:49;96929.09;;;20.37;81.94
47556;BME280;33291;46.222;26.460;2023-06-22T06:43:14;96923.50;;;20.47;81.15
47556;BME280;33291;46.222;26.460;2023-06-22T06:45:40;96926.03;;;20.62;79.49
47556;BME280;33291;46.222;26.460;2023-06-22T06:48:05;96931.66;;;20.73;77.69
47556;BME280;33291;46.222;26.460;2023-06-22T06:50:31;96936.44;;;20.85;74.91
47556;BME280;33291;46.222;26.460;2023-06-22T06:52:56;96928.72;;;20.90;74.41
47556;BME280;33291;46.222;26.460;2023-06-22T06:55:24;96931.84;;;21.00;74.21
47556;BME280;33291;46.222;26.460;2023-06-22T06:57:50;96923.16;;;21.13;74.77
47556;BME280;33291;46.222;26.460;2023-06-22T07:00:18;96922.44;;;21.26;74.68
47556;BME280;33291;46.222;26.460;2023-06-22T07:02:44;96907.75;;;21.30;73.91
47556;BME280;33291;46.222;26.460;2023-06-22T07:05:11;96918.84;;;21.47;72.06
47556;BME280;33291;46.222;26.460;2023-06-22T07:07:37;96917.50;;;21.58;69.88
47556;BME280;33291;46.222;26.460;2023-06-22T07:10:03;96918.50;;;21.63;62.82
47556;BME280;33291;46.222;26.460;2023-06-22T07:12:29;96918.34;;;21.72;66.43
47556;BME280;33291;46.222;26.460;2023-06-22T07:15:03;96917.75;;;21.83;66.10
47556;BME280;33291;46.222;26.460;2023-06-22T07:17:29;96910.06;;;21.95;66.51
47556;BME280;33291;46.222;26.460;2023-06-22T07:19:55;96908.03;;;22.04;66.10
47556;BME280;33291;46.222;26.460;2023-06-22T07:22:20;96920.69;;;22.15;64.54
47556;BME280;33291;46.222;26.460;2023-06-22T07:24:46;96915.00;;;22.25;63.95
47556;BME280;33291;46.222;26.460;2023-06-22T07:27:11;96906.66;;;22.34;62.62
47556;BME280;33291;46.222;26.460;2023-06-22T07:29:37;96914.22;;;22.44;62.33
47556;BME280;33291;46.222;26.460;2023-06-22T07:32:05;96916.06;;;22.50;62.58
47556;BME280;33291;46.222;26.460;2023-06-22T07:34:31;96908.09;;;22.50;62.91
47556;BME280;33291;46.222;26.460;2023-06-22T07:36:57;96914.63;;;22.68;61.43
47556;BME280;33291;46.222;26.460;2023-06-22T07:39:22;96911.75;;;22.76;61.19
47556;BME280;33291;46.222;26.460;2023-06-22T07:41:51;96911.75;;;22.83;60.69
47556;BME280;33291;46.222;26.460;2023-06-22T07:44:16;96911.31;;;22.93;60.77
47556;BME280;33291;46.222;26.460;2023-06-22T07:46:42;96903.13;;;23.01;58.96
47556;BME280;33291;46.222;26.460;2023-06-22T07:49:07;96905.59;;;23.09;58.04
47556;BME280;33291;46.222;26.460;2023-06-22T07:51:36;96902.09;;;23.15;57.31
47556;BME280;33291;46.222;26.460;2023-06-22T07:54:01;96896.56;;;23.23;57.86
47556;BME280;33291;46.222;26.460;2023-06-22T07:56:27;96903.03;;;23.41;57.28
47556;BME280;33291;46.222;26.460;2023-06-22T07:58:52;96885.47;;;23.33;55.22
47556;BME280;33291;46.222;26.460;2023-06-22T08:01:18;96899.75;;;23.46;55.84
47556;BME280;33291;46.222;26.460;2023-06-22T08:03:48;96896.44;;;23.50;55.98
47556;BME280;33291;46.222;26.460;2023-06-22T08:06:13;96896.81;;;23.60;53.92
47556;BME280;33291;46.222;26.460;2023-06-22T08:08:39;96903.78;;;23.62;53.46
47556;BME280;33291;46.222;26.460;2023-06-22T08:11:05;96902.50;;;23.71;53.54
47556;BME280;33291;46.222;26.460;2023-06-22T08:13:31;96896.91;;;23.79;54.10
47556;BME280;33291;46.222;26.460;2023-06-22T08:15:56;96907.75;;;23.84;54.75
47556;BME280;33291;46.222;26.460;2023-06-22T08:18:22;96904.44;;;23.95;52.99
47556;BME280;33291;46.222;26.460;2023-06-22T08:20:47;96897.06;;;23.98;53.25
47556;BME280;33291;46.222;26.460;2023-06-22T08:23:13;96899.03;;;24.09;52.15
47556;BME280;33291;46.222;26.460;2023-06-22T08:25:38;96894.06;;;24.12;51.97
47556;BME280;33291;46.222;26.460;2023-06-22T08:28:04;96898.94;;;24.22;51.46
47556;BME280;33291;46.222;26.460;2023-06-22T08:30:30;96888.72;;;24.19;52.16
47556;BME280;33291;46.222;26.460;2023-06-22T08:32:55;96888.88;;;24.24;52.98
47556;BME280;33291;46.222;26.460;2023-06-22T08:35:24;96899.44;;;24.38;53.63
47556;BME280;33291;46.222;26.460;2023-06-22T08:37:50;96893.41;;;24.49;53.77
47556;BME280;33291;46.222;26.460;2023-06-22T08:40:18;96884.38;;;24.50;53.03
47556;BME280;33291;46.222;26.460;2023-06-22T08:42:45;96882.47;;;24.57;53.00
47556;BME280;33291;46.222;26.460;2023-06-22T08:45:11;96885.16;;;24.57;53.15
47556;BME280;33291;46.222;26.460;2023-06-22T08:47:37;96891.91;;;24.60;52.24
47556;BME280;33291;46.222;26.460;2023-06-22T08:50:03;96887.97;;;24.62;53.07
47556;BME280;33291;46.222;26.460;2023-06-22T08:52:29;96899.41;;;24.70;52.30
47556;BME280;33291;46.222;26.460;2023-06-22T08:54:54;96892.44;;;24.69;52.49
47556;BME280;33291;46.222;26.460;2023-06-22T08:57:21;96865.69;;;24.57;52.29
47556;BME280;33291;46.222;26.460;2023-06-22T08:59:46;96892.75;;;24.79;52.38
47556;BME280;33291;46.222;26.460;2023-06-22T09:02:11;96902.09;;;24.88;52.15
47556;BME280;33291;46.222;26.460;2023-06-22T09:04:37;96895.72;;;24.89;51.92
47556;BME280;33291;46.222;26.460;2023-06-22T09:07:03;96894.63;;;24.97;52.51
47556;BME280;33291;46.222;26.460;2023-06-22T09:09:28;96894.94;;;25.07;52.11
47556;BME280;33291;46.222;26.460;2023-06-22T09:11:54;96894.06;;;25.13;52.37
47556;BME280;33291;46.222;26.460;2023-06-22T09:14:19;96886.63;;;25.15;52.52
47556;BME280;33291;46.222;26.460;2023-06-22T09:16:45;96886.56;;;25.22;52.44
47556;BME280;33291;46.222;26.460;2023-06-22T09:19:11;96879.53;;;25.28;51.30
47556;BME280;33291;46.222;26.460;2023-06-22T09:21:37;96865.59;;;25.26;51.85
47556;BME280;33291;46.222;26.460;2023-06-22T09:24:02;96879.50;;;25.34;51.51
47556;BME280;33291;46.222;26.460;2023-06-22T09:26:28;96880.66;;;25.39;51.48
47556;BME280;33291;46.222;26.460;2023-06-22T09:28:53;96877.75;;;25.40;50.76
47556;BME280;33291;46.222;26.460;2023-06-22T09:31:19;96877.34;;;25.43;51.26
47556;BME280;33291;46.222;26.460;2023-06-22T09:33:51;96877.25;;;25.50;50.50
47556;BME280;33291;46.222;26.460;2023-06-22T09:36:17;96871.47;;;25.53;49.90
47556;BME280;33291;46.222;26.460;2023-06-22T09:38:42;96866.47;;;25.57;49.86
47556;BME280;33291;46.222;26.460;2023-06-22T09:41:08;96864.31;;;25.65;50.02
47556;BME280;33291;46.222;26.460;2023-06-22T09:43:33;96860.16;;;25.69;50.00
47556;BME280;33291;46.222;26.460;2023-06-22T09:46:02;96860.44;;;25.80;48.94
47556;BME280;33291;46.222;26.460;2023-06-22T09:48:28;96851.25;;;25.76;49.35
47556;BME280;33291;46.222;26.460;2023-06-22T09:50:55;96863.91;;;25.80;49.88
47556;BME280;33291;46.222;26.460;2023-06-22T09:53:20;96860.28;;;25.75;49.67
47556;BME280;33291;46.222;26.460;2023-06-22T09:55:46;96864.59;;;25.76;49.68
47556;BME280;33291;46.222;26.460;2023-06-22T09:58:12;96855.09;;;25.80;49.65
47556;BME280;33291;46.222;26.460;2023-06-22T10:00:37;96853.34;;;25.85;49.20
47556;BME280;33291;46.222;26.460;2023-06-22T10:03:03;96859.88;;;25.89;49.50
47556;BME280;33291;46.222;26.460;2023-06-22T10:05:28;96845.72;;;25.89;49.88
47556;BME280;33291;46.222;26.460;2023-06-22T10:07:54;96851.53;;;25.98;49.23
47556;BME280;33291;46.222;26.460;2023-06-22T10:10:19;96845.53;;;26.02;49.02
47556;BME280;33291;46.222;26.460;2023-06-22T10:12:54;96851.00;;;26.08;48.89
47556;BME280;33291;46.222;26.460;2023-06-22T10:15:20;96853.00;;;26.12;48.59
47556;BME280;33291;46.222;26.460;2023-06-22T10:17:46;96852.41;;;26.22;48.77
47556;BME280;33291;46.222;26.460;2023-06-22T10:20:12;96849.06;;;26.27;49.01
47556;BME280;33291;46.222;26.460;2023-06-22T10:22:40;96850.22;;;26.31;49.03
47556;BME280;33291;46.222;26.460;2023-06-22T10:25:06;96850.13;;;26.37;48.18
47556;BME280;33291;46.222;26.460;2023-06-22T10:27:32;96841.66;;;26.40;48.13
47556;BME280;33291;46.222;26.460;2023-06-22T10:29:58;96833.66;;;26.40;48.01
47556;BME280;33291;46.222;26.460;2023-06-22T10:32:23;96838.06;;;26.47;47.79
47556;BME280;33291;46.222;26.460;2023-06-22T10:34:48;96837.00;;;26.48;47.58
47556;BME280;33291;46.222;26.460;2023-06-22T10:37:14;96834.47;;;26.53;47.50
47556;BME280;33291;46.222;26.460;2023-06-22T10:39:39;96835.25;;;26.53;47.72
47556;BME280;33291;46.222;26.460;2023-06-22T10:42:05;96824.00;;;26.51;47.43
47556;BME280;33291;46.222;26.460;2023-06-22T10:44:31;96825.75;;;26.57;47.59
47556;BME280;33291;46.222;26.460;2023-06-22T10:46:56;96816.34;;;26.55;47.60
47556;BME280;33291;46.222;26.460;2023-06-22T10:49:21;96824.56;;;26.65;47.36
47556;BME280;33291;46.222;26.460;2023-06-22T10:51:47;96812.88;;;26.66;46.40
47556;BME280;33291;46.222;26.460;2023-06-22T10:54:12;96824.25;;;26.73;46.71
47556;BME280;33291;46.222;26.460;2023-06-22T10:56:40;96811.34;;;26.70;46.37
47556;BME280;33291;46.222;26.460;2023-06-22T10:59:05;96796.22;;;26.64;46.12
47556;BME280;33291;46.222;26.460;2023-06-22T11:01:31;96816.91;;;26.81;46.16
47556;BME280;33291;46.222;26.460;2023-06-22T11:03:57;96818.88;;;26.85;46.60
47556;BME280;33291;46.222;26.460;2023-06-22T11:06:22;96814.47;;;26.91;46.10
47556;BME280;33291;46.222;26.460;2023-06-22T11:08:48;96823.53;;;26.90;45.85
47556;BME280;33291;46.222;26.460;2023-06-22T11:11:13;96813.06;;;26.88;46.12
47556;BME280;33291;46.222;26.460;2023-06-22T11:13:39;96802.16;;;26.90;45.55
47556;BME280;33291;46.222;26.460;2023-06-22T11:16:04;96800.03;;;26.92;46.42
47556;BME280;33291;46.222;26.460;2023-06-22T11:18:31;96805.97;;;26.94;46.49
47556;BME280;33291;46.222;26.460;2023-06-22T11:20:58;96788.66;;;26.97;45.25
47556;BME280;33291;46.222;26.460;2023-06-22T11:23:24;96797.09;;;27.05;45.10
47556;BME280;33291;46.222;26.460;2023-06-22T11:25:51;96799.31;;;27.08;44.67
47556;BME280;33291;46.222;26.460;2023-06-22T11:28:16;96801.97;;;27.08;44.54
47556;BME280;33291;46.222;26.460;2023-06-22T11:30:42;96806.66;;;27.01;44.06
47556;BME280;33291;46.222;26.460;2023-06-22T11:33:07;96794.44;;;26.93;44.29
47556;BME280;33291;46.222;26.460;2023-06-22T11:35:33;96811.41;;;26.99;44.30
47556;BME280;33291;46.222;26.460;2023-06-22T11:37:59;96802.72;;;26.92;44.05
47556;BME280;33291;46.222;26.460;2023-06-22T11:40:24;96796.72;;;26.85;44.12
47556;BME280;33291;46.222;26.460;2023-06-22T11:42:49;96795.41;;;26.87;44.36
47556;BME280;33291;46.222;26.460;2023-06-22T11:45:15;96797.56;;;27.02;43.21
47556;BME280;33291;46.222;26.460;2023-06-22T11:47:42;96802.44;;;27.05;44.33
47556;BME280;33291;46.222;26.460;2023-06-22T11:50:08;96788.28;;;27.05;42.39
47556;BME280;33291;46.222;26.460;2023-06-22T11:52:34;96791.88;;;27.10;42.79
47556;BME280;33291;46.222;26.460;2023-06-22T11:55:01;96795.34;;;27.11;43.62
47556;BME280;33291;46.222;26.460;2023-06-22T11:57:29;96786.53;;;27.10;42.77
47556;BME280;33291;46.222;26.460;2023-06-22T11:59:54;96792.28;;;27.19;43.30
47556;BME280;33291;46.222;26.460;2023-06-22T12:02:20;96792.28;;;27.19;43.15
47556;BME280;33291;46.222;26.460;2023-06-22T12:04:45;96797.53;;;27.26;43.49
47556;BME280;33291;46.222;26.460;2023-06-22T12:07:11;96796.00;;;27.30;43.16
47556;BME280;33291;46.222;26.460;2023-06-22T12:09:37;96787.53;;;27.33;42.45
47556;BME280;33291;46.222;26.460;2023-06-22T12:12:02;96787.97;;;27.30;41.83
47556;BME280;33291;46.222;26.460;2023-06-22T12:14:28;96792.72;;;27.40;42.48
47556;BME280;33291;46.222;26.460;2023-06-22T12:16:54;96784.94;;;27.38;42.59
47556;BME280;33291;46.222;26.460;2023-06-22T12:19:19;96792.47;;;27.41;42.68
47556;BME280;33291;46.222;26.460;2023-06-22T12:21:45;96785.84;;;27.44;42.75
47556;BME280;33291;46.222;26.460;2023-06-22T12:24:11;96773.75;;;27.41;41.83
47556;BME280;33291;46.222;26.460;2023-06-22T12:26:36;96791.53;;;27.47;41.95
47556;BME280;33291;46.222;26.460;2023-06-22T12:29:02;96779.44;;;27.45;41.36
47556;BME280;33291;46.222;26.460;2023-06-22T12:31:27;96788.38;;;27.51;40.07
47556;BME280;33291;46.222;26.460;2023-06-22T12:33:53;96780.66;;;27.54;40.88
47556;BME280;33291;46.222;26.460;2023-06-22T12:36:18;96780.78;;;27.59;40.93
47556;BME280;33291;46.222;26.460;2023-06-22T12:38:44;96779.00;;;27.65;40.56
47556;BME280;33291;46.222;26.460;2023-06-22T12:41:09;96779.88;;;27.71;40.66
47556;BME280;33291;46.222;26.460;2023-06-22T12:43:35;96768.69;;;27.74;39.75
47556;BME280;33291;46.222;26.460;2023-06-22T12:46:00;96777.38;;;27.81;39.29
47556;BME280;33291;46.222;26.460;2023-06-22T12:48:26;96776.59;;;27.80;39.45
47556;BME280;33291;46.222;26.460;2023-06-22T12:50:53;96782.00;;;27.86;39.80